Time;durP1;ratioP1;P1;durP2;ratioP2;P2;SDS_P1;SDS_P2;PMS_P1;PMS_P2;Temp;Humidity;BMP_temperature;BMP_pressure;BME280_temperature;BME280_humidity;BME280_pressure;Samples;Min_cycle;Max_cycle;Signal;HPM_P1;HPM_P2
2021/12/13 00:00:42;;;;;;;10.88;8.00;;;10.40;99.90;;;;;;4163936;28;20033;-64
2021/12/13 00:02:56;;;;;;;10.50;7.57;;;10.40;99.90;;;;;;4127122;28;20049;-64
2021/12/13 00:05:00;;;;;;;14.32;8.88;;;10.40;99.90;;;;;;4165489;28;20471;-64
2021/12/13 00:07:06;;;;;;;11.98;8.30;;;10.30;99.90;;;;;;4166732;28;20037;-64
2021/12/13 00:09:12;;;;;;;12.40;8.63;;;10.30;99.90;;;;;;4167409;28;20033;-64
2021/12/13 00:11:44;;;;;;;12.98;8.85;;;10.30;99.90;;;;;;4166690;28;20120;-64
2021/12/13 00:13:59;;;;;;;11.18;7.93;;;10.30;99.90;;;;;;4164506;28;20045;-64
2021/12/13 00:16:04;;;;;;;9.93;7.15;;;10.30;99.90;;;;;;4166675;28;20456;-64
2021/12/13 00:18:08;;;;;;;9.80;7.68;;;10.30;99.90;;;;;;4167329;28;20037;-64
2021/12/13 00:20:13;;;;;;;12.13;8.63;;;10.30;99.90;;;;;;4166805;28;20100;-64
2021/12/13 00:22:31;;;;;;;9.48;7.53;;;10.30;99.90;;;;;;4167227;28;20041;-64
2021/12/13 00:24:39;;;;;;;10.85;7.90;;;10.30;99.90;;;;;;4167371;28;20026;-64
2021/12/13 00:26:47;;;;;;;11.48;8.27;;;10.30;99.90;;;;;;4166539;28;20040;-64
2021/12/13 00:28:49;;;;;;;10.90;8.07;;;10.30;99.90;;;;;;4167091;28;20467;-64
2021/12/13 00:31:20;;;;;;;13.15;7.90;;;10.30;99.90;;;;;;4166529;28;20061;-64
2021/12/13 00:33:32;;;;;;;9.55;7.25;;;10.30;99.90;;;;;;4167143;28;20041;-64
2021/12/13 00:35:48;;;;;;;14.27;8.10;;;10.30;99.90;;;;;;4166546;28;20384;-64
2021/12/13 00:37:57;;;;;;;9.27;7.00;;;10.30;99.90;;;;;;4167105;28;20038;-64
2021/12/13 00:40:14;;;;;;;11.13;7.88;;;10.30;99.90;;;;;;4166904;28;20033;-64
2021/12/13 00:42:15;;;;;;;9.68;7.20;;;10.30;99.90;;;;;;4166969;28;20037;-64
2021/12/13 00:44:22;;;;;;;10.05;7.53;;;10.30;99.90;;;;;;4166910;28;20419;-64
2021/12/13 00:46:25;;;;;;;9.98;7.30;;;10.30;99.90;;;;;;4166054;28;20048;-64
2021/12/13 00:48:29;;;;;;;9.48;7.07;;;10.30;99.90;;;;;;4166979;28;20029;-64
2021/12/13 00:50:55;;;;;;;13.07;8.02;;;10.30;99.90;;;;;;4166186;28;21434;-64
2021/12/13 00:52:56;;;;;;;11.55;7.53;;;10.30;99.90;;;;;;4155603;28;20573;-64
2021/12/13 00:54:58;;;;;;;10.52;7.68;;;10.30;99.90;;;;;;4166695;28;20038;-64
2021/12/13 00:56:58;;;;;;;9.95;7.68;;;10.20;99.90;;;;;;4181491;28;20063;-64
2021/12/13 00:58:59;;;;;;;10.63;7.22;;;10.30;99.90;;;;;;4166870;28;20038;-64
2021/12/13 01:01:08;;;;;;;14.98;7.97;;;10.30;99.90;;;;;;4165924;28;20395;-64
2021/12/13 01:03:26;;;;;;;9.90;6.88;;;10.30;99.90;;;;;;4166695;28;20036;-64
2021/12/13 01:05:26;;;;;;;11.63;6.97;;;10.30;99.90;;;;;;4166346;28;20037;-65
2021/12/13 01:07:33;;;;;;;9.88;6.95;;;10.30;99.90;;;;;;4166446;28;20061;-64
2021/12/13 01:10:07;;;;;;;9.88;7.45;;;10.30;99.90;;;;;;4166412;28;20387;-64
2021/12/13 01:12:17;;;;;;;9.23;7.00;;;10.30;99.90;;;;;;4166135;28;20041;-64
2021/12/13 01:14:41;;;;;;;8.23;6.32;;;10.30;99.90;;;;;;4167011;28;20088;-64
2021/12/13 01:19:13;;;;;;;9.33;6.30;;;10.30;99.90;;;;;;4166759;28;20041;-64
2021/12/13 01:21:31;;;;;;;9.77;6.97;;;10.30;99.90;;;;;;4165862;28;20030;-64
2021/12/13 01:23:45;;;;;;;10.65;7.18;;;10.30;99.90;;;;;;4166696;28;20033;-64
2021/12/13 01:26:13;;;;;;;8.30;6.78;;;10.20;99.90;;;;;;4165915;28;20091;-64
2021/12/13 01:28:37;;;;;;;8.85;6.65;;;10.30;99.90;;;;;;4166421;28;20030;-64
2021/12/13 01:30:47;;;;;;;9.13;6.43;;;10.30;99.90;;;;;;4165370;28;20025;-64
2021/12/13 01:32:53;;;;;;;8.02;6.25;;;10.30;99.90;;;;;;4166466;28;20033;-64
2021/12/13 01:34:54;;;;;;;9.55;6.68;;;10.30;99.90;;;;;;4166372;28;20495;-64
2021/12/13 01:37:12;;;;;;;8.85;6.20;;;10.30;99.90;;;;;;4165489;28;20079;-64
2021/12/13 01:39:20;;;;;;;10.95;7.35;;;10.30;99.90;;;;;;4166142;28;20042;-64
2021/12/13 01:41:34;;;;;;;9.80;6.55;;;10.30;99.90;;;;;;4165597;28;20041;-65
2021/12/13 01:43:38;;;;;;;7.30;5.72;;;10.20;99.90;;;;;;4166049;28;20468;-65
2021/12/13 01:45:41;;;;;;;8.63;6.63;;;10.30;99.90;;;;;;4165499;28;20037;-65
2021/12/13 01:47:46;;;;;;;7.13;5.93;;;10.30;99.90;;;;;;4166088;28;20025;-64
2021/12/13 01:49:52;;;;;;;9.20;6.97;;;10.20;99.90;;;;;;4165735;28;20056;-64
2021/12/13 01:51:53;;;;;;;10.93;6.53;;;10.30;99.90;;;;;;4165005;28;20143;-64
2021/12/13 01:53:58;;;;;;;9.85;6.40;;;10.30;99.90;;;;;;4166071;28;20030;-64
2021/12/13 01:56:08;;;;;;;8.80;6.47;;;10.20;99.90;;;;;;4165150;28;20033;-64
2021/12/13 02:01:08;;;;;;;12.82;6.38;;;10.20;99.90;;;;;;4165185;28;20636;-64
2021/12/13 02:02:54;;;;;;;7.78;5.60;;;10.20;99.90;;;;;;4165840;28;20036;-64
2021/12/13 02:05:00;;;;;;;8.02;6.40;;;10.20;99.90;;;;;;4165514;28;20033;-64
2021/12/13 02:07:03;;;;;;;7.38;5.68;;;10.20;99.90;;;;;;4165225;28;20033;-64
2021/12/13 02:09:17;;;;;;;8.30;5.82;;;10.20;99.90;;;;;;4165798;28;20053;-64
2021/12/13 02:11:19;;;;;;;8.43;5.88;;;10.20;99.90;;;;;;4164769;28;20030;-64
2021/12/13 02:13:48;;;;;;;6.95;5.70;;;10.10;99.90;;;;;;4165632;28;20396;-64
2021/12/13 02:18:23;;;;;;;8.30;5.78;;;10.20;99.90;;;;;;4165565;28;20033;-64
2021/12/13 02:20:35;;;;;;;8.77;6.10;;;10.10;99.90;;;;;;4164896;28;20060;-65
2021/12/13 02:22:40;;;;;;;8.82;6.15;;;10.10;99.90;;;;;;4165212;28;20387;-64
2021/12/13 02:24:42;;;;;;;7.72;5.72;;;10.10;99.90;;;;;;4165683;28;20025;-64
2021/12/13 02:26:47;;;;;;;8.82;6.43;;;10.10;99.90;;;;;;4164772;28;20447;-64
2021/12/13 02:29:11;;;;;;;8.80;6.35;;;10.10;99.90;;;;;;4165009;28;20025;-64
2021/12/13 02:31:20;;;;;;;7.90;5.93;;;10.00;99.90;;;;;;4164680;28;20456;-64
2021/12/13 02:33:32;;;;;;;7.03;5.65;;;10.10;99.90;;;;;;4165366;28;20069;-64
2021/12/13 02:35:36;;;;;;;8.70;6.28;;;10.00;99.90;;;;;;4164846;28;20096;-64
2021/12/13 02:37:39;;;;;;;8.20;5.93;;;10.00;99.90;;;;;;4165503;28;20041;-64
2021/12/13 02:39:48;;;;;;;7.80;6.10;;;10.00;99.90;;;;;;4165045;28;20108;-64
2021/12/13 02:41:51;;;;;;;9.65;6.53;;;10.00;99.90;;;;;;4164687;28;20114;-64
2021/12/13 02:43:58;;;;;;;8.48;6.55;;;10.00;99.90;;;;;;4165493;28;20036;-64
2021/12/13 02:45:59;;;;;;;9.40;5.80;;;10.10;99.90;;;;;;4164333;28;20513;-64
2021/12/13 02:48:08;;;;;;;8.18;5.47;;;10.00;99.90;;;;;;4165055;28;20499;-64
2021/12/13 02:50:21;;;;;;;8.13;6.70;;;10.00;99.90;;;;;;4164392;28;20616;-66
2021/12/13 02:52:22;;;;;;;;;;;10.00;99.90;;;;;;4165305;28;20056;-64
2021/12/13 02:54:27;;;;;;;9.57;6.28;;;10.00;99.90;;;;;;4165075;28;19917;-64
2021/12/13 02:56:34;;;;;;;6.95;5.55;;;10.00;99.90;;;;;;4164337;28;20384;-64
2021/12/13 02:58:36;;;;;;;10.55;6.57;;;10.00;99.90;;;;;;4165141;28;20095;-64
2021/12/13 03:00:51;;;;;;;9.07;6.28;;;9.90;99.90;;;;;;4164572;28;20025;-64
2021/12/13 03:02:56;;;;;;;8.55;6.20;;;10.00;99.90;;;;;;4164934;28;20033;-64
2021/12/13 03:05:01;;;;;;;9.07;6.25;;;10.00;99.90;;;;;;4164928;28;20030;-67
2021/12/13 03:07:25;;;;;;;9.30;6.63;;;10.00;99.90;;;;;;4164273;28;20033;-64
2021/12/13 03:09:29;;;;;;;8.00;5.70;;;10.00;99.90;;;;;;4165133;28;20068;-64
2021/12/13 03:11:34;;;;;;;8.27;5.60;;;10.00;99.90;;;;;;4163954;28;20037;-64
2021/12/13 03:13:35;;;;;;;9.70;6.90;;;10.00;99.90;;;;;;4165015;28;20379;-64
2021/12/13 03:15:36;;;;;;;7.57;5.47;;;10.00;99.90;;;;;;4164168;28;20034;-64
2021/12/13 03:17:43;;;;;;;8.82;6.43;;;10.00;99.90;;;;;;4165117;28;20029;-64
2021/12/13 03:20:13;;;;;;;9.05;6.28;;;10.00;99.90;;;;;;4164753;28;20041;-64
2021/12/13 03:22:37;;;;;;;9.32;6.18;;;10.00;99.90;;;;;;4164935;28;20072;-64
2021/12/13 03:25:24;;;;;;;8.95;6.20;;;10.00;99.90;;;;;;4164904;28;20026;-64
2021/12/13 03:27:51;;;;;;;8.90;5.82;;;10.00;99.90;;;;;;4162665;28;20045;-64
2021/12/13 03:30:12;;;;;;;6.95;5.75;;;10.00;99.90;;;;;;4164719;28;20049;-64
2021/12/13 03:32:15;;;;;;;9.82;6.32;;;10.00;99.90;;;;;;4164542;28;20095;-64
2021/12/13 03:34:27;;;;;;;7.90;5.60;;;10.00;99.90;;;;;;4164603;28;20388;-64
2021/12/13 03:36:44;;;;;;;8.88;6.40;;;10.00;99.90;;;;;;4164204;28;20116;-64
2021/12/13 03:38:49;;;;;;;7.10;5.57;;;10.00;99.90;;;;;;4164777;28;20080;-64
2021/12/13 03:40:50;;;;;;;7.88;5.78;;;10.00;99.90;;;;;;4166476;28;20029;-64
2021/12/13 03:42:54;;;;;;;9.60;6.32;;;10.00;99.90;;;;;;4167737;28;20034;-64
2021/12/13 03:44:59;;;;;;;7.63;5.25;;;10.00;99.90;;;;;;4167961;28;20563;-64
2021/12/13 03:47:08;;;;;;;7.28;5.10;;;10.00;99.90;;;;;;4167606;28;20479;-64
2021/12/13 03:49:10;;;;;;;8.23;6.03;;;10.00;99.90;;;;;;4168046;28;20099;-64
2021/12/13 03:51:15;;;;;;;10.30;6.35;;;10.10;99.90;;;;;;4167445;28;20453;-64
2021/12/13 03:53:19;;;;;;;10.30;5.93;;;10.10;99.90;;;;;;4167916;28;20072;-64
2021/12/13 03:55:23;;;;;;;8.18;5.90;;;10.00;99.90;;;;;;4167061;28;20373;-64
2021/12/13 03:57:25;;;;;;;7.53;5.82;;;10.00;99.90;;;;;;4167471;28;20132;-64
2021/12/13 03:59:28;;;;;;;8.05;5.32;;;10.00;99.90;;;;;;4167945;28;20034;-64
2021/12/13 04:01:40;;;;;;;6.35;4.88;;;10.00;99.90;;;;;;4167086;28;20037;-64
2021/12/13 04:03:43;;;;;;;7.00;5.47;;;10.00;99.90;;;;;;4167459;28;20029;-64
2021/12/13 04:05:45;;;;;;;8.00;6.18;;;10.00;99.90;;;;;;4166908;28;20037;-64
2021/12/13 04:07:49;;;;;;;7.00;5.40;;;10.00;99.90;;;;;;4167505;28;20108;-64
2021/12/13 04:09:55;;;;;;;7.25;5.13;;;10.00;99.90;;;;;;4167391;28;20045;-64
2021/12/13 04:11:59;;;;;;;10.40;5.80;;;10.00;99.90;;;;;;4166779;28;20033;-64
2021/12/13 04:14:15;;;;;;;8.50;6.00;;;10.00;99.90;;;;;;4167353;28;20033;-64
2021/12/13 04:16:32;;;;;;;9.40;5.72;;;10.00;99.90;;;;;;4166920;28;20034;-64
2021/12/13 04:19:27;;;;;;;7.68;5.60;;;10.00;99.90;;;;;;4167610;28;20033;-64
2021/12/13 04:21:05;;;;;;;10.40;5.75;;;10.00;99.90;;;;;;4162650;28;20068;-64
2021/12/13 04:23:13;;;;;;;9.75;6.18;;;10.00;99.90;;;;;;4167290;28;20116;-64
2021/12/13 04:25:25;;;;;;;7.55;5.97;;;10.00;99.90;;;;;;4166612;28;20025;-64
2021/12/13 04:28:05;;;;;;;9.13;5.88;;;10.00;99.90;;;;;;4167102;28;20036;-64
2021/12/13 04:30:29;;;;;;;7.53;5.32;;;9.90;99.90;;;;;;4154708;28;20454;-64
2021/12/13 04:32:36;;;;;;;8.55;5.20;;;9.90;99.90;;;;;;4167390;28;20069;-64
2021/12/13 04:34:41;;;;;;;8.05;5.05;;;9.90;99.90;;;;;;4167444;28;20036;-64
2021/12/13 04:36:46;;;;;;;7.53;4.95;;;9.90;99.90;;;;;;4166990;28;20060;-65
2021/12/13 04:38:52;;;;;;;7.57;5.00;;;9.90;99.90;;;;;;4167000;28;20029;-65
2021/12/13 04:40:54;;;;;;;6.85;5.00;;;9.90;99.90;;;;;;4166313;28;20380;-64
2021/12/13 04:43:08;;;;;;;6.95;4.80;;;9.90;99.90;;;;;;4167189;28;20080;-64
2021/12/13 04:45:13;;;;;;;6.80;4.93;;;9.90;99.90;;;;;;4166326;28;20030;-65
2021/12/13 04:47:19;;;;;;;7.80;5.78;;;9.90;99.90;;;;;;4167131;28;20037;-64
2021/12/13 04:49:22;;;;;;;9.15;5.70;;;9.90;99.90;;;;;;4166904;28;20037;-64
2021/12/13 04:51:35;;;;;;;8.05;5.13;;;9.90;99.90;;;;;;4165776;28;20052;-64
2021/12/13 04:53:39;;;;;;;5.93;4.65;;;9.90;99.90;;;;;;4167088;28;20135;-64
2021/12/13 04:55:42;;;;;;;6.43;4.40;;;9.90;99.90;;;;;;4165982;28;20068;-65
2021/12/13 04:57:43;;;;;;;7.20;5.20;;;10.00;99.90;;;;;;4166925;28;20033;-64
2021/12/13 04:59:56;;;;;;;5.63;4.57;;;10.00;99.90;;;;;;4166730;28;20521;-64
2021/12/13 05:02:01;;;;;;;7.70;4.93;;;10.00;99.90;;;;;;4165059;28;20041;-64
2021/12/13 05:04:05;;;;;;;7.28;4.75;;;10.00;99.90;;;;;;4166915;28;20033;-64
2021/12/13 05:06:16;;;;;;;8.32;5.03;;;10.00;99.90;;;;;;4166019;28;20030;-65
2021/12/13 05:08:18;;;;;;;6.88;4.78;;;10.00;99.90;;;;;;4167005;28;20033;-64
2021/12/13 05:10:23;;;;;;;7.25;5.25;;;10.00;99.90;;;;;;4165888;28;20040;-65
2021/12/13 05:12:28;;;;;;;6.03;4.72;;;10.00;99.90;;;;;;4166500;28;20029;-64
2021/12/13 05:14:46;;;;;;;7.53;4.57;;;10.00;99.90;;;;;;4166660;28;20033;-64
2021/12/13 05:16:54;;;;;;;7.68;4.75;;;10.00;99.90;;;;;;4166024;28;20033;-65
2021/12/13 05:18:57;;;;;;;8.50;4.80;;;10.00;99.90;;;;;;4166408;28;20091;-65
2021/12/13 05:21:08;;;;;;;8.30;4.95;;;10.00;99.90;;;;;;4165873;28;20056;-64
2021/12/13 05:23:12;;;;;;;7.20;5.07;;;10.00;99.90;;;;;;4166322;28;20091;-64
2021/12/13 05:25:36;;;;;;;6.28;4.60;;;10.00;99.90;;;;;;4165662;28;20072;-65
2021/12/13 05:27:40;;;;;;;7.07;4.80;;;10.00;99.90;;;;;;4166286;28;20026;-65
2021/12/13 05:29:51;;;;;;;7.28;4.72;;;10.00;99.90;;;;;;4166186;28;20534;-64
2021/12/13 05:31:54;;;;;;;6.28;4.07;;;10.00;99.90;;;;;;4165511;28;20400;-65
2021/12/13 05:33:59;;;;;;;5.45;4.38;;;10.00;99.90;;;;;;4166126;28;20033;-65
2021/12/13 05:36:08;;;;;;;5.88;4.15;;;10.00;99.90;;;;;;4165422;28;20106;-65
2021/12/13 05:38:22;;;;;;;6.13;4.45;;;10.00;99.90;;;;;;4166467;28;20026;-64
2021/12/13 05:40:25;;;;;;;7.30;5.10;;;10.00;99.90;;;;;;4165677;28;20080;-65
2021/12/13 05:42:36;;;;;;;7.63;4.30;;;10.00;99.90;;;;;;4165995;28;20116;-65
2021/12/13 05:44:43;;;;;;;7.68;5.25;;;10.00;99.90;;;;;;4165856;28;20084;-65
2021/12/13 05:46:48;;;;;;;6.90;4.50;;;10.00;99.90;;;;;;4165407;28;20468;-65
2021/12/13 05:48:56;;;;;;;6.25;4.90;;;10.00;99.90;;;;;;4166029;28;20049;-64
2021/12/13 05:51:02;;;;;;;7.60;4.65;;;10.00;99.90;;;;;;4165398;28;20056;-65
2021/12/13 05:53:12;;;;;;;7.00;5.00;;;10.00;99.90;;;;;;4166170;28;20484;-64
2021/12/13 05:55:14;;;;;;;6.78;4.93;;;10.00;99.90;;;;;;4163993;28;20029;-65
2021/12/13 05:57:19;;;;;;;8.70;5.35;;;10.00;99.90;;;;;;4165857;28;20104;-64
2021/12/13 05:59:36;;;;;;;7.20;5.03;;;10.00;99.90;;;;;;4165336;28;20030;-65
2021/12/13 06:01:54;;;;;;;7.35;4.85;;;10.00;99.90;;;;;;4165494;28;20124;-64
2021/12/13 06:04:35;;;;;;;5.32;4.18;;;10.00;99.90;;;;;;4165241;28;20502;-65
2021/12/13 06:06:56;;;;;;;8.73;5.05;;;10.00;99.90;;;;;;4160828;28;20099;-65
2021/12/13 06:08:58;;;;;;;7.07;4.32;;;10.00;99.90;;;;;;4165086;28;20099;-65
2021/12/13 06:11:02;;;;;;;6.32;4.50;;;9.90;99.90;;;;;;4165030;28;20037;-64
2021/12/13 06:13:07;;;;;;;6.47;4.68;;;9.90;99.90;;;;;;4165582;28;20030;-65
2021/12/13 06:15:30;;;;;;;7.28;4.78;;;9.90;99.90;;;;;;4165071;28;20116;-65
2021/12/13 06:17:32;;;;;;;9.85;4.80;;;10.00;99.90;;;;;;4165640;28;20040;-64
2021/12/13 06:19:35;;;;;;;6.15;4.60;;;9.90;99.90;;;;;;4165461;28;20083;-65
2021/12/13 06:21:51;;;;;;;8.77;4.78;;;10.00;99.90;;;;;;4165141;28;20120;-65
2021/12/13 06:23:52;;;;;;;6.10;4.47;;;9.90;99.90;;;;;;4165591;28;20104;-65
2021/12/13 06:25:57;;;;;;;6.15;4.40;;;9.90;99.90;;;;;;4164837;28;20177;-65
2021/12/13 06:27:59;;;;;;;7.35;4.60;;;9.90;99.90;;;;;;4165764;28;20088;-65
2021/12/13 06:30:22;;;;;;;8.15;4.68;;;9.90;99.90;;;;;;4165377;28;20090;-65
2021/12/13 06:32:36;;;;;;;6.18;4.38;;;9.90;99.90;;;;;;4165543;28;20048;-65
2021/12/13 06:34:37;;;;;;;6.53;4.53;;;9.90;99.90;;;;;;4165671;28;20053;-65
2021/12/13 06:36:47;;;;;;;7.85;4.43;;;9.90;99.90;;;;;;4165044;28;20033;-65
2021/12/13 06:38:51;;;;;;;8.30;4.65;;;9.90;99.90;;;;;;4165001;28;20040;-65
2021/12/13 06:40:57;;;;;;;10.13;4.40;;;9.90;99.90;;;;;;4164454;28;20028;-65
2021/12/13 06:43:01;;;;;;;5.70;4.03;;;9.90;99.90;;;;;;4165475;28;20037;-65
2021/12/13 06:45:16;;;;;;;9.35;5.03;;;9.90;99.90;;;;;;4165071;28;20030;-65
2021/12/13 06:47:20;;;;;;;7.03;4.55;;;9.90;99.90;;;;;;4165324;28;20057;-65
2021/12/13 06:49:25;;;;;;;6.13;4.43;;;9.90;99.90;;;;;;4165147;28;20368;-65
2021/12/13 06:51:46;;;;;;;4.88;4.07;;;9.90;99.90;;;;;;4164504;28;20390;-65
2021/12/13 06:54:10;;;;;;;7.85;4.68;;;9.80;99.90;;;;;;4165438;28;20048;-64
2021/12/13 06:56:24;;;;;;;5.70;4.15;;;9.90;99.90;;;;;;4164396;28;20460;-64
2021/12/13 06:58:27;;;;;;;6.07;4.30;;;9.90;99.90;;;;;;4165140;28;20115;-64
2021/12/13 07:00:32;;;;;;;5.70;4.53;;;9.90;99.90;;;;;;4164336;28;20034;-64
2021/12/13 07:02:35;;;;;;;6.70;4.38;;;9.90;99.90;;;;;;4164974;28;20045;-64
2021/12/13 07:05:10;;;;;;;5.82;4.25;;;9.80;99.90;;;;;;4165284;28;20381;-64
2021/12/13 07:07:12;;;;;;;5.50;3.88;;;9.90;99.90;;;;;;4156420;28;20440;-64
2021/12/13 07:09:17;;;;;;;;;;;9.90;99.90;;;;;;4165344;28;20116;-64
2021/12/13 07:11:20;;;;;;;6.05;4.20;;;9.90;99.90;;;;;;4164096;28;20256;-64
2021/12/13 07:13:21;;;;;;;;;;;9.80;99.90;;;;;;4165473;28;20419;-65
2021/12/13 07:15:36;;;;;;;5.60;3.75;;;9.90;99.90;;;;;;4166037;28;19905;-64
2021/12/13 07:17:37;;;;;;;5.28;3.88;;;9.90;99.90;;;;;;4168410;28;20037;-64
2021/12/13 07:19:42;;;;;;;7.90;4.20;;;9.90;99.90;;;;;;4168155;28;20119;-64
2021/12/13 07:22:05;;;;;;;6.03;4.40;;;9.80;99.90;;;;;;4167975;28;20128;-64
2021/12/13 07:24:14;;;;;;;6.35;4.50;;;9.80;99.90;;;;;;4168568;28;20029;-64
2021/12/13 07:26:26;;;;;;;6.38;4.28;;;9.80;99.90;;;;;;4167678;28;20060;-64
2021/12/13 07:28:36;;;;;;;5.00;3.72;;;9.80;99.90;;;;;;4167969;28;20037;-64
2021/12/13 07:30:38;;;;;;;6.07;3.88;;;9.80;99.90;;;;;;4167804;28;20057;-64
2021/12/13 07:32:45;;;;;;;5.85;3.60;;;9.80;99.90;;;;;;4168189;28;20457;-64
2021/12/13 07:34:53;;;;;;;4.15;3.03;;;9.80;99.90;;;;;;4168179;28;20036;-64
2021/12/13 07:36:59;;;;;;;4.90;3.80;;;9.90;99.90;;;;;;4167245;28;20112;-64
2021/12/13 07:39:06;;;;;;;5.00;3.60;;;9.90;99.90;;;;;;4167778;28;20063;-64
2021/12/13 07:41:07;;;;;;;4.97;3.67;;;9.80;99.90;;;;;;4167234;28;20041;-64
2021/12/13 07:43:29;;;;;;;5.95;3.40;;;9.80;99.90;;;;;;4168123;28;20067;-64
2021/12/13 07:45:33;;;;;;;6.65;4.07;;;9.80;99.90;;;;;;4167051;28;20060;-64
2021/12/13 07:47:34;;;;;;;7.15;4.03;;;9.90;99.90;;;;;;4167102;28;20033;-64
2021/12/13 07:49:42;;;;;;;4.68;3.40;;;9.90;99.90;;;;;;4167943;28;20030;-64
2021/12/13 07:51:50;;;;;;;3.97;3.28;;;9.90;99.90;;;;;;4166806;28;20030;-64
2021/12/13 07:53:57;;;;;;;5.90;3.85;;;9.90;99.90;;;;;;4167928;28;20033;-64
2021/12/13 07:55:58;;;;;;;7.75;3.60;;;9.80;99.90;;;;;;4167190;28;20428;-64
2021/12/13 07:58:04;;;;;;;5.15;3.35;;;9.90;99.90;;;;;;4167631;28;20117;-64
2021/12/13 08:00:36;;;;;;;4.68;2.97;;;9.90;99.90;;;;;;4167260;28;20033;-65
2021/12/13 08:02:37;;;;;;;5.85;4.05;;;9.90;99.90;;;;;;4167874;28;20160;-64
2021/12/13 08:04:40;;;;;;;6.68;3.45;;;9.90;99.90;;;;;;4167503;28;20387;-64
2021/12/13 08:06:46;;;;;;;6.03;3.50;;;9.90;99.90;;;;;;4166764;28;20033;-64
2021/12/13 08:08:54;;;;;;;3.95;3.17;;;9.90;99.90;;;;;;4167352;28;20034;-64
2021/12/13 08:10:58;;;;;;;3.97;3.22;;;9.90;99.90;;;;;;4167014;28;20041;-64
2021/12/13 08:13:06;;;;;;;4.13;3.08;;;9.90;99.90;;;;;;4167280;28;20472;-64
2021/12/13 08:15:16;;;;;;;5.80;3.15;;;9.90;99.90;;;;;;4167287;28;20032;-68
2021/12/13 08:17:31;;;;;;;4.53;3.30;;;9.90;99.90;;;;;;4167552;28;20387;-64
2021/12/13 08:19:33;;;;;;;4.70;3.05;;;9.90;99.90;;;;;;4167476;28;20079;-64
2021/12/13 08:21:40;;;;;;;4.82;3.42;;;9.90;99.90;;;;;;4167094;28;20030;-64
2021/12/13 08:23:53;;;;;;;6.30;3.33;;;9.90;99.90;;;;;;4167508;28;20034;-64
2021/12/13 08:25:58;;;;;;;5.13;2.85;;;9.90;99.90;;;;;;4166338;28;20029;-64
2021/12/13 08:28:06;;;;;;;5.68;3.30;;;9.90;99.90;;;;;;4167459;28;20116;-64
2021/12/13 08:30:13;;;;;;;5.07;3.03;;;9.90;99.90;;;;;;4166562;28;20539;-64
2021/12/13 08:32:17;;;;;;;4.30;2.75;;;9.90;99.90;;;;;;4167337;28;20045;-64
2021/12/13 08:34:29;;;;;;;4.90;3.22;;;9.90;99.90;;;;;;4167137;28;20033;-64
2021/12/13 08:36:34;;;;;;;6.25;3.20;;;9.90;99.90;;;;;;4166699;28;20025;-64
2021/12/13 08:38:47;;;;;;;4.65;3.35;;;9.90;99.90;;;;;;4166733;28;20061;-64
2021/12/13 08:40:47;;;;;;;;;;;9.90;99.90;;;;;;4166874;28;20029;-64
2021/12/13 08:42:51;;;;;;;4.57;2.72;;;10.00;99.90;;;;;;4166950;28;20383;-64
2021/12/13 08:45:11;;;;;;;4.60;2.65;;;9.90;99.90;;;;;;4167005;28;20038;-64
2021/12/13 08:47:24;;;;;;;3.42;2.90;;;9.90;99.90;;;;;;4167183;28;20112;-64
2021/12/13 08:49:25;;;;;;;;;;;9.90;99.90;;;;;;4167155;28;20026;-64
2021/12/13 08:51:29;;;;;;;4.90;2.72;;;9.90;99.90;;;;;;4166102;28;19916;-64
2021/12/13 08:53:36;;;;;;;4.57;3.00;;;9.90;99.90;;;;;;4167048;28;20049;-64
2021/12/13 08:55:43;;;;;;;4.40;2.88;;;9.90;99.90;;;;;;4166330;28;20036;-64
2021/12/13 08:57:53;;;;;;;4.63;3.10;;;9.90;99.90;;;;;;4166617;28;20420;-64
2021/12/13 08:59:54;;;;;;;5.00;3.00;;;9.80;99.90;;;;;;4166724;28;20383;-64
2021/12/13 09:02:09;;;;;;;4.22;2.58;;;9.90;99.90;;;;;;4166431;28;20033;-64
2021/12/13 09:04:24;;;;;;;4.65;2.95;;;9.90;99.90;;;;;;4166901;28;20099;-64
2021/12/13 09:06:31;;;;;;;4.40;2.90;;;9.90;99.90;;;;;;4166327;28;20030;-64
2021/12/13 09:08:42;;;;;;;4.38;2.80;;;9.90;99.90;;;;;;4166633;28;20052;-64
2021/12/13 09:10:59;;;;;;;4.43;2.58;;;9.90;99.90;;;;;;4165869;28;20030;-64
2021/12/13 09:13:00;;;;;;;5.07;2.75;;;10.00;99.90;;;;;;4166455;28;20033;-64
2021/12/13 09:15:17;;;;;;;5.32;3.03;;;9.90;99.90;;;;;;4166777;28;20025;-64
2021/12/13 09:17:21;;;;;;;4.45;2.88;;;9.90;99.90;;;;;;4166473;28;20468;-64
2021/12/13 09:19:32;;;;;;;9.20;3.08;;;9.90;99.90;;;;;;4166230;28;20036;-64
2021/12/13 09:22:05;;;;;;;6.90;3.25;;;9.90;99.90;;;;;;4165870;28;20500;-64
2021/12/13 09:24:08;;;;;;;5.07;2.92;;;9.90;99.90;;;;;;4166085;28;20068;-64
2021/12/13 09:26:11;;;;;;;;;;;9.90;99.90;;;;;;4165964;28;20100;-64
2021/12/13 09:28:18;;;;;;;5.45;2.90;;;9.90;99.90;;;;;;4166332;28;20331;-64
2021/12/13 09:30:33;;;;;;;4.47;2.97;;;9.90;99.90;;;;;;4165403;28;20065;-64
2021/12/13 09:32:42;;;;;;;5.57;3.30;;;9.90;99.90;;;;;;4166052;28;20492;-64
2021/12/13 09:34:45;;;;;;;5.20;2.28;;;10.00;99.90;;;;;;4166381;28;20041;-64
2021/12/13 09:36:49;;;;;;;3.15;2.50;;;10.00;99.90;;;;;;4165526;28;20052;-64
2021/12/13 09:39:06;;;;;;;3.92;2.88;;;10.00;99.90;;;;;;4165303;28;20035;-64
2021/12/13 09:41:16;;;;;;;5.18;2.72;;;10.00;99.90;;;;;;4165519;28;20121;-64
2021/12/13 09:43:20;;;;;;;6.88;3.00;;;10.00;99.90;;;;;;4166283;28;20024;-64
2021/12/13 09:45:37;;;;;;;4.32;2.80;;;10.00;99.90;;;;;;4165179;28;20041;-64
2021/12/13 09:47:41;;;;;;;4.18;2.85;;;10.00;99.90;;;;;;4165852;28;20037;-64
2021/12/13 09:49:57;;;;;;;5.05;2.97;;;10.00;99.90;;;;;;4166177;28;20034;-63
2021/12/13 09:52:03;;;;;;;3.45;2.65;;;10.00;99.90;;;;;;4164942;28;20048;-64
2021/12/13 09:54:07;;;;;;;5.82;2.97;;;10.00;99.90;;;;;;4166228;28;20034;-64
2021/12/13 09:56:13;;;;;;;4.10;2.78;;;10.10;99.90;;;;;;4165039;28;20037;-64
2021/12/13 09:58:20;;;;;;;3.25;2.58;;;10.10;99.90;;;;;;4165688;28;20034;-64
2021/12/13 10:00:40;;;;;;;3.60;2.80;;;10.10;99.90;;;;;;4164924;28;20104;-64
2021/12/13 10:02:47;;;;;;;5.95;3.13;;;10.10;99.90;;;;;;4165825;28;20043;-64
2021/12/13 10:04:49;;;;;;;4.53;2.80;;;10.10;99.90;;;;;;4165784;28;20053;-63
2021/12/13 10:07:07;;;;;;;4.35;2.95;;;10.20;99.90;;;;;;4165095;28;20029;-63
2021/12/13 10:09:22;;;;;;;3.55;2.70;;;10.20;99.90;;;;;;4165366;28;20033;-64
2021/12/13 10:11:52;;;;;;;4.53;3.15;;;10.20;99.90;;;;;;4165211;28;20037;-63
2021/12/13 10:13:54;;;;;;;3.78;2.67;;;10.20;99.90;;;;;;4163065;28;20488;-63
2021/12/13 10:16:07;;;;;;;7.40;3.05;;;10.20;99.90;;;;;;4164844;28;20029;-64
2021/12/13 10:18:09;;;;;;;;;;;10.20;99.90;;;;;;4166390;28;20061;-64
2021/12/13 10:20:16;;;;;;;5.43;2.70;;;10.20;99.90;;;;;;4164544;28;19966;-64
2021/12/13 10:22:27;;;;;;;3.45;2.63;;;10.20;99.90;;;;;;4165429;28;20373;-64
2021/12/13 10:24:34;;;;;;;3.78;2.72;;;10.30;99.90;;;;;;4165379;28;20028;-64
2021/12/13 10:26:38;;;;;;;3.53;2.88;;;10.20;99.90;;;;;;4165006;28;20030;-64
2021/12/13 10:28:45;;;;;;;3.60;2.65;;;10.20;99.90;;;;;;4165282;28;20028;-64
2021/12/13 10:31:20;;;;;;;6.13;2.70;;;10.20;99.90;;;;;;4164881;28;20116;-64
2021/12/13 10:33:23;;;;;;;3.55;2.50;;;10.20;99.90;;;;;;4158175;28;20053;-64
2021/12/13 10:35:29;;;;;;;3.67;2.28;;;10.30;99.90;;;;;;4164665;28;20109;-64
2021/12/13 10:37:36;;;;;;;4.72;2.42;;;10.30;99.90;;;;;;4165287;28;20033;-64
2021/12/13 10:39:43;;;;;;;2.63;2.10;;;10.30;99.90;;;;;;4165256;28;20471;-64
2021/12/13 10:41:48;;;;;;;2.35;2.13;;;10.30;99.90;;;;;;4164602;28;20056;-64
2021/12/13 10:43:56;;;;;;;2.60;2.33;;;10.30;99.90;;;;;;4165156;28;20037;-64
2021/12/13 10:46:07;;;;;;;3.25;2.53;;;10.30;99.90;;;;;;4163534;28;20040;-63
2021/12/13 10:48:12;;;;;;;3.08;2.20;;;10.30;99.90;;;;;;4165349;28;20057;-64
2021/12/13 10:50:18;;;;;;;3.00;2.20;;;10.30;99.90;;;;;;4164219;28;20262;-64
2021/12/13 10:52:24;;;;;;;3.42;2.30;;;10.30;99.90;;;;;;4164968;28;20053;-64
2021/12/13 10:54:31;;;;;;;2.90;2.30;;;10.30;99.90;;;;;;4165073;28;20032;-64
2021/12/13 10:56:37;;;;;;;4.38;2.75;;;10.30;99.90;;;;;;4164568;28;20034;-64
2021/12/13 10:58:43;;;;;;;3.78;2.70;;;10.30;99.90;;;;;;4164826;28;20040;-63
2021/12/13 11:00:49;;;;;;;4.63;2.45;;;10.30;99.90;;;;;;4164273;28;20029;-64
2021/12/13 11:02:59;;;;;;;4.57;2.40;;;10.30;99.90;;;;;;4165191;28;20487;-64
2021/12/13 11:05:11;;;;;;;3.50;2.58;;;10.30;99.90;;;;;;4165319;28;20100;-64
2021/12/13 11:07:13;;;;;;;3.10;2.40;;;10.30;99.90;;;;;;4164998;28;20034;-63
2021/12/13 11:09:19;;;;;;;3.78;2.40;;;10.40;99.90;;;;;;4164895;28;20033;-64
2021/12/13 11:11:30;;;;;;;4.53;2.58;;;10.40;99.90;;;;;;4164154;28;20108;-64
2021/12/13 11:13:35;;;;;;;3.20;2.40;;;10.30;99.90;;;;;;4164999;28;20490;-64
2021/12/13 11:15:40;;;;;;;4.65;2.65;;;10.40;99.90;;;;;;4164079;28;20036;-63
2021/12/13 11:17:41;;;;;;;2.85;2.13;;;10.40;99.90;;;;;;4165017;28;20452;-64
2021/12/13 11:19:46;;;;;;;4.85;2.53;;;10.30;99.90;;;;;;4164520;28;20022;-64
2021/12/13 11:21:51;;;;;;;3.53;2.30;;;10.30;99.90;;;;;;4164564;28;20043;-64